createdAt,value
2023-04-06T00:01:58.953Z,-0.69
2023-04-06T00:04:27.568Z,-0.63
2023-04-06T00:06:55.565Z,-0.71
2023-04-06T00:09:23.463Z,-0.74
2023-04-06T00:11:52.763Z,-0.75
2023-04-06T00:14:21.084Z,-0.75
2023-04-06T00:16:48.944Z,-0.74
2023-04-06T00:19:17.161Z,-0.71
2023-04-06T00:21:45.002Z,-0.70
2023-04-06T00:24:12.841Z,-0.71
2023-04-06T00:26:40.666Z,-0.73
2023-04-06T00:29:10.663Z,-0.72
2023-04-06T00:31:38.752Z,-0.74
2023-04-06T00:34:07.524Z,-0.77
2023-04-06T00:36:35.335Z,-0.81
2023-04-06T00:39:03.240Z,-0.91
2023-04-06T00:41:31.226Z,-0.97
2023-04-06T00:43:59.211Z,-1.00
2023-04-06T00:46:28.600Z,-1.01
2023-04-06T00:48:56.525Z,-1.04
2023-04-06T00:51:24.945Z,-1.02
2023-04-06T00:53:52.817Z,-0.99
2023-04-06T00:56:22.225Z,-0.98
2023-04-06T00:58:53.152Z,-0.98
2023-04-06T01:01:21.374Z,-0.96
2023-04-06T01:03:53.295Z,-0.96
2023-04-06T01:06:22.505Z,-1.01
2023-04-06T01:08:58.804Z,-1.04
2023-04-06T01:11:28.116Z,-1.06
2023-04-06T01:13:56.027Z,-1.08
2023-04-06T01:16:29.690Z,-1.10
2023-04-06T01:19:17.657Z,-1.14
2023-04-06T01:21:50.318Z,-1.19
2023-04-06T01:24:29.905Z,-1.21
2023-04-06T01:27:16.439Z,-1.22
2023-04-06T01:29:53.112Z,-1.24
2023-04-06T01:32:47.342Z,-1.26
2023-04-06T01:35:20.897Z,-1.29
2023-04-06T01:37:59.723Z,-1.27
2023-04-06T01:40:33.776Z,-1.30
2023-04-06T01:43:01.835Z,-1.36
2023-04-06T01:45:38.441Z,-1.50
2023-04-06T01:48:16.182Z,-1.61
2023-04-06T01:50:43.997Z,-1.75
2023-04-06T01:53:15.432Z,-1.80
2023-04-06T01:55:47.693Z,-1.86
2023-04-06T01:58:24.136Z,-1.89
2023-04-06T02:00:52.252Z,-1.87
2023-04-06T02:03:20.250Z,-1.85
2023-04-06T02:05:49.176Z,-1.88
2023-04-06T02:08:26.204Z,-1.89
2023-04-06T02:10:55.566Z,-1.82
2023-04-06T02:13:34.826Z,-1.81
2023-04-06T02:16:03.573Z,-1.77
2023-04-06T02:18:32.538Z,-1.82
2023-04-06T02:21:00.364Z,-1.82
2023-04-06T02:23:28.186Z,-1.79
2023-04-06T02:25:59.854Z,-1.76
2023-04-06T02:28:28.219Z,-1.76
2023-04-06T02:30:56.083Z,-1.78
2023-04-06T02:33:28.716Z,-1.78
2023-04-06T02:35:56.653Z,-1.77
2023-04-06T02:38:24.935Z,-1.78
2023-04-06T02:40:54.011Z,-1.80
2023-04-06T02:43:28.601Z,-1.80
2023-04-06T02:46:04.351Z,-1.81
2023-04-06T02:48:37.227Z,-1.82
2023-04-06T02:51:06.083Z,-1.88
2023-04-06T02:53:34.480Z,-1.92
2023-04-06T02:56:02.656Z,-1.82
2023-04-06T02:58:42.505Z,-2.02
2023-04-06T03:01:10.463Z,-2.07
2023-04-06T03:03:39.837Z,-2.18
2023-04-06T03:06:13.082Z,-2.19
2023-04-06T03:08:41.507Z,-2.23
2023-04-06T03:11:09.360Z,-2.19
2023-04-06T03:13:42.852Z,-2.12
2023-04-06T03:16:11.998Z,-2.08
2023-04-06T03:18:40.045Z,-2.08
2023-04-06T03:21:07.911Z,-2.07
2023-04-06T03:23:45.940Z,-2.07
2023-04-06T03:26:13.771Z,-2.06
2023-04-06T03:28:42.993Z,-2.07
2023-04-06T03:31:10.901Z,-2.04
2023-04-06T03:33:41.330Z,-2.04
2023-04-06T03:36:12.242Z,-2.02
2023-04-06T03:38:42.905Z,-2.04
2023-04-06T03:41:14.112Z,-2.06
2023-04-06T03:43:47.934Z,-2.08
2023-04-06T03:46:15.873Z,-2.08
2023-04-06T03:48:43.793Z,-2.10
2023-04-06T03:51:15.263Z,-2.14
2023-04-06T03:53:43.075Z,-2.17
2023-04-06T03:56:12.370Z,-2.26
2023-04-06T03:58:40.307Z,-2.27
2023-04-06T04:01:09.512Z,-2.32
2023-04-06T04:03:37.454Z,-2.39
2023-04-06T04:06:05.475Z,-2.41
2023-04-06T04:08:33.542Z,-2.40
2023-04-06T04:11:01.522Z,-2.38
2023-04-06T04:13:30.186Z,-2.33
2023-04-06T04:15:58.040Z,-2.33
2023-04-06T04:18:27.331Z,-2.31
2023-04-06T04:20:55.261Z,-2.29
2023-04-06T04:23:24.401Z,-2.29
2023-04-06T04:25:52.701Z,-2.32
2023-04-06T04:28:20.759Z,-2.37
2023-04-06T04:30:48.756Z,-2.37
2023-04-06T04:33:16.928Z,-2.37
2023-04-06T04:35:47.178Z,-2.41
2023-04-06T04:38:19.105Z,-2.40
2023-04-06T04:40:52.621Z,-2.40
2023-04-06T04:43:20.580Z,-2.44
2023-04-06T04:45:48.763Z,-2.45
2023-04-06T04:48:28.509Z,-2.47
2023-04-06T04:51:02.313Z,-2.48
2023-04-06T04:53:41.355Z,-2.50
2023-04-06T04:56:19.039Z,-2.50
2023-04-06T04:58:49.240Z,-2.45
2023-04-06T05:01:17.133Z,-2.41
2023-04-06T05:03:46.554Z,-2.41
2023-04-06T05:06:19.066Z,-2.44
2023-04-06T05:08:46.965Z,-2.46
2023-04-06T05:11:15.078Z,-2.45
2023-04-06T05:13:47.309Z,-2.53
2023-04-06T05:16:19.947Z,-2.34
2023-04-06T05:18:49.374Z,-2.35
2023-04-06T05:21:19.010Z,-2.27
2023-04-06T05:24:12.699Z,-2.11
2023-04-06T05:26:42.695Z,-2.03
2023-04-06T05:29:21.066Z,-1.93
2023-04-06T05:31:49.483Z,-1.85
2023-04-06T05:34:17.491Z,-1.80
2023-04-06T05:36:47.224Z,-1.68
2023-04-06T05:39:21.597Z,-1.57
2023-04-06T05:41:52.083Z,-1.47
2023-04-06T05:44:30.870Z,-1.38
2023-04-06T05:47:09.437Z,-1.26
2023-04-06T05:49:38.936Z,-1.13
2023-04-06T05:52:13.433Z,-1.00
2023-04-06T05:54:45.273Z,-0.85
2023-04-06T05:57:13.179Z,-0.74
2023-04-06T05:59:41.299Z,-0.66
2023-04-06T06:02:09.349Z,-0.58
2023-04-06T06:04:42.140Z,-0.47
2023-04-06T06:07:10.337Z,-0.36
2023-04-06T06:09:45.704Z,-0.29
2023-04-06T06:12:24.660Z,-0.18
2023-04-06T06:14:52.721Z,-0.09
2023-04-06T06:17:21.958Z,0.00
2023-04-06T06:19:50.317Z,0.08
2023-04-06T06:22:18.373Z,0.21
2023-04-06T06:24:50.724Z,0.33
2023-04-06T06:27:21.406Z,0.45
2023-04-06T06:29:49.498Z,0.57
2023-04-06T06:32:17.720Z,0.68
2023-04-06T06:34:48.641Z,0.81
2023-04-06T06:37:16.564Z,0.91
2023-04-06T06:39:44.447Z,1.08
2023-04-06T06:42:14.828Z,1.22
2023-04-06T06:45:06.781Z,1.41
2023-04-06T06:47:34.708Z,1.59
2023-04-06T06:50:03.873Z,1.72
2023-04-06T06:52:31.835Z,1.91
2023-04-06T06:55:01.320Z,2.11
2023-04-06T06:57:30.752Z,2.21
2023-04-06T07:00:00.873Z,2.32
2023-04-06T07:02:29.811Z,2.39
2023-04-06T07:04:58.074Z,2.47
2023-04-06T07:07:26.157Z,2.52
2023-04-06T07:09:53.973Z,2.68
2023-04-06T07:12:21.832Z,2.81
2023-04-06T07:14:51.026Z,2.99
2023-04-06T07:17:19.543Z,3.12
2023-04-06T07:19:47.616Z,3.22
2023-04-06T07:22:15.432Z,3.33
2023-04-06T07:24:43.223Z,3.47
2023-04-06T07:27:11.409Z,3.65
2023-04-06T07:29:39.633Z,3.85
2023-04-06T07:32:09.134Z,3.98
2023-04-06T07:34:37.035Z,4.16
2023-04-06T07:37:04.933Z,4.20
2023-04-06T07:39:34.119Z,4.33
2023-04-06T07:42:02.236Z,4.53
2023-04-06T07:44:30.275Z,4.75
2023-04-06T07:46:58.393Z,4.92
2023-04-06T07:49:27.640Z,5.08
2023-04-06T07:51:56.299Z,5.23
2023-04-06T07:54:24.246Z,5.42
2023-04-06T07:56:52.070Z,5.54
2023-04-06T07:59:19.889Z,5.72
2023-04-06T08:01:47.902Z,5.89
2023-04-06T08:04:15.847Z,6.06
2023-04-06T08:06:45.088Z,6.20
2023-04-06T08:09:12.928Z,6.33
2023-04-06T08:11:41.391Z,6.41
2023-04-06T08:14:09.647Z,6.53
2023-04-06T08:16:37.674Z,6.69
2023-04-06T08:19:05.537Z,6.85
2023-04-06T08:21:33.354Z,6.91
2023-04-06T08:24:02.709Z,7.05
2023-04-06T08:26:30.748Z,7.06
2023-04-06T08:28:58.710Z,7.24
2023-04-06T08:31:27.251Z,7.44
2023-04-06T08:33:55.102Z,7.55
2023-04-06T08:36:23.915Z,7.71
2023-04-06T08:38:51.956Z,7.96
2023-04-06T08:41:21.667Z,8.01
2023-04-06T08:43:51.438Z,8.03
2023-04-06T08:46:19.648Z,8.02
2023-04-06T08:48:49.720Z,8.24
2023-04-06T08:51:18.030Z,8.18
2023-04-06T08:53:46.105Z,8.06
2023-04-06T08:56:14.496Z,8.24
2023-04-06T08:58:43.985Z,8.58
2023-04-06T09:01:16.447Z,8.77
2023-04-06T09:03:48.155Z,8.74
2023-04-06T09:06:16.494Z,8.96
2023-04-06T09:08:44.354Z,8.85
2023-04-06T09:11:13.078Z,9.23
2023-04-06T09:13:50.518Z,9.36
2023-04-06T09:16:19.335Z,9.52
2023-04-06T09:18:47.733Z,9.86
2023-04-06T09:21:20.650Z,10.01
2023-04-06T09:23:59.916Z,10.10
2023-04-06T09:26:27.871Z,9.90
2023-04-06T09:28:58.410Z,10.11
2023-04-06T09:31:27.588Z,10.39
2023-04-06T09:33:55.858Z,10.33
2023-04-06T09:36:32.715Z,10.59
2023-04-06T09:39:01.955Z,10.84
2023-04-06T09:41:31.387Z,11.10
2023-04-06T09:44:06.247Z,11.10
2023-04-06T09:46:50.555Z,11.38
2023-04-06T09:49:26.251Z,11.40
2023-04-06T09:51:57.659Z,11.31
2023-04-06T09:54:29.972Z,11.44
2023-04-06T09:57:03.206Z,11.32
2023-04-06T09:59:40.238Z,11.77
2023-04-06T10:02:17.499Z,12.17
2023-04-06T10:04:50.143Z,12.36
2023-04-06T10:07:19.164Z,12.36
2023-04-06T10:09:48.755Z,12.32
2023-04-06T10:12:17.365Z,12.18
2023-04-06T10:14:47.112Z,12.33
2023-04-06T10:17:14.964Z,12.76
2023-04-06T10:19:50.413Z,12.56
2023-04-06T10:22:28.417Z,12.86
2023-04-06T10:24:56.472Z,12.82
2023-04-06T10:27:32.010Z,12.94
2023-04-06T10:30:05.363Z,13.21
2023-04-06T10:32:37.887Z,13.58
2023-04-06T10:35:10.402Z,13.57
2023-04-06T10:37:55.374Z,13.92
2023-04-06T10:40:25.995Z,14.28
2023-04-06T10:42:54.816Z,14.62
2023-04-06T10:45:25.459Z,14.35
2023-04-06T10:47:55.294Z,14.45
2023-04-06T10:50:23.907Z,14.46
2023-04-06T10:53:01.235Z,14.85
2023-04-06T10:55:30.718Z,13.91
2023-04-06T10:57:58.624Z,14.64
2023-04-06T11:00:36.258Z,15.26
2023-04-06T11:03:15.393Z,15.38
2023-04-06T11:05:47.704Z,14.97
2023-04-06T11:08:24.804Z,14.78
2023-04-06T11:10:52.657Z,15.13
2023-04-06T11:13:20.600Z,15.28
2023-04-06T11:15:50.097Z,15.73
2023-04-06T11:18:19.863Z,16.09
2023-04-06T11:20:50.098Z,15.56
2023-04-06T11:23:24.736Z,15.02
2023-04-06T11:25:53.573Z,14.53
2023-04-06T11:28:22.197Z,14.73
2023-04-06T11:30:51.428Z,15.16
2023-04-06T11:33:23.445Z,15.70
2023-04-06T11:35:51.421Z,15.26
2023-04-06T11:38:20.431Z,15.87
2023-04-06T11:40:48.333Z,16.39
2023-04-06T11:43:16.376Z,16.36
2023-04-06T11:45:44.674Z,16.45
2023-04-06T11:48:25.399Z,16.46
2023-04-06T11:50:57.901Z,16.04
2023-04-06T11:53:25.866Z,16.12
2023-04-06T11:55:53.814Z,15.86
2023-04-06T11:58:21.665Z,16.19
2023-04-06T12:00:49.490Z,16.46
2023-04-06T12:03:17.347Z,16.52
2023-04-06T12:05:47.136Z,16.90
2023-04-06T12:08:15.003Z,17.33
2023-04-06T12:10:42.830Z,17.65
2023-04-06T12:13:10.611Z,17.39
2023-04-06T12:15:38.468Z,16.74
2023-04-06T12:18:06.310Z,17.06
2023-04-06T12:20:34.131Z,16.93
2023-04-06T12:23:03.276Z,16.79
2023-04-06T12:25:32.243Z,15.92
2023-04-06T12:28:00.448Z,15.77
2023-04-06T12:30:28.238Z,15.98
2023-04-06T12:32:56.319Z,15.84
2023-04-06T12:35:24.207Z,15.86
2023-04-06T12:37:52.038Z,16.36
2023-04-06T12:40:22.356Z,16.97
2023-04-06T12:42:50.301Z,17.26
2023-04-06T12:45:21.245Z,16.77
2023-04-06T12:47:49.065Z,17.11
2023-04-06T12:50:16.903Z,17.70
2023-04-06T12:52:44.777Z,18.03
2023-04-06T12:55:12.611Z,17.88
2023-04-06T12:57:42.539Z,17.48
2023-04-06T13:00:11.124Z,16.69
2023-04-06T13:02:39.441Z,16.70
2023-04-06T13:05:07.914Z,16.97
2023-04-06T13:07:35.728Z,17.05
2023-04-06T13:10:03.594Z,16.66
2023-04-06T13:12:31.701Z,16.30
2023-04-06T13:15:01.003Z,16.97
2023-04-06T13:17:29.578Z,17.07
2023-04-06T13:19:57.744Z,17.45
2023-04-06T13:22:25.666Z,16.83
2023-04-06T13:24:53.475Z,16.74
2023-04-06T13:27:21.513Z,17.46
2023-04-06T13:29:49.295Z,18.14
2023-04-06T13:32:18.511Z,17.86
2023-04-06T13:34:46.651Z,18.57
2023-04-06T13:37:15.017Z,18.62
2023-04-06T13:39:42.847Z,17.96
2023-04-06T13:42:11.035Z,17.45
2023-04-06T13:44:38.918Z,17.97
2023-04-06T13:47:06.824Z,17.25
2023-04-06T13:49:36.268Z,17.25
2023-04-06T13:52:04.097Z,17.03
2023-04-06T13:54:31.913Z,17.55
2023-04-06T13:56:59.784Z,17.81
2023-04-06T13:59:34.125Z,17.61
2023-04-06T14:02:02.141Z,16.72
2023-04-06T14:04:30.328Z,16.38
2023-04-06T14:07:00.044Z,16.76
2023-04-06T14:09:28.203Z,16.91
2023-04-06T14:11:56.438Z,17.12
2023-04-06T14:14:24.477Z,16.97
2023-04-06T14:16:52.207Z,17.07
2023-04-06T14:19:21.704Z,17.11
2023-04-06T14:21:49.896Z,17.06
2023-04-06T14:24:20.261Z,16.67
2023-04-06T14:26:48.578Z,16.49
2023-04-06T14:29:16.692Z,16.28
2023-04-06T14:31:44.467Z,16.53
2023-04-06T14:34:12.297Z,16.50
2023-04-06T14:36:40.096Z,16.79
2023-04-06T14:39:10.781Z,17.30
2023-04-06T14:41:39.900Z,17.26
2023-04-06T14:44:07.771Z,16.90
2023-04-06T14:46:35.615Z,16.35
2023-04-06T14:49:04.347Z,15.85
2023-04-06T14:51:32.381Z,15.54
2023-04-06T14:54:03.850Z,15.24
2023-04-06T14:56:32.173Z,15.39
2023-04-06T14:59:02.801Z,15.25
2023-04-06T15:01:43.742Z,15.03
2023-04-06T15:04:11.710Z,15.12
2023-04-06T15:06:39.460Z,15.10
2023-04-06T15:09:07.552Z,15.08
2023-04-06T15:11:35.344Z,15.11
2023-04-06T15:14:04.496Z,15.18
2023-04-06T15:16:33.363Z,15.18
2023-04-06T15:19:01.801Z,15.01
2023-04-06T15:21:29.618Z,14.96
2023-04-06T15:23:57.567Z,15.07
2023-04-06T15:26:26.468Z,14.71
2023-04-06T15:28:54.213Z,14.75
2023-04-06T15:31:36.844Z,14.59
2023-04-06T15:34:06.512Z,14.64
2023-04-06T15:36:34.990Z,14.67
2023-04-06T15:39:04.026Z,14.81
2023-04-06T15:41:32.062Z,14.88
2023-04-06T15:43:59.959Z,14.56
2023-04-06T15:46:29.252Z,14.47
2023-04-06T15:48:57.183Z,14.59
2023-04-06T15:51:26.176Z,14.36
2023-04-06T15:53:53.943Z,14.38
2023-04-06T15:56:22.079Z,14.30
2023-04-06T15:58:49.772Z,14.30
2023-04-06T16:01:18.858Z,14.28
2023-04-06T16:03:48.317Z,14.32
2023-04-06T16:06:16.465Z,14.32
2023-04-06T16:08:44.428Z,14.58
2023-04-06T16:11:12.593Z,14.73
2023-04-06T16:13:43.168Z,14.43
2023-04-06T16:16:12.947Z,14.14
2023-04-06T16:18:40.715Z,13.78
2023-04-06T16:21:09.809Z,13.54
2023-04-06T16:23:37.542Z,13.46
2023-04-06T16:26:12.862Z,13.39
2023-04-06T16:28:40.822Z,13.29
2023-04-06T16:31:08.591Z,13.17
2023-04-06T16:33:36.342Z,13.02
2023-04-06T16:36:04.106Z,12.96
2023-04-06T16:38:35.576Z,12.86
2023-04-06T16:41:03.781Z,12.70
2023-04-06T16:43:32.215Z,12.61
2023-04-06T16:46:00.041Z,12.54
2023-04-06T16:48:27.981Z,12.35
2023-04-06T16:50:56.380Z,12.23
2023-04-06T16:53:24.190Z,12.07
2023-04-06T16:55:53.357Z,12.03
2023-04-06T16:58:21.104Z,11.86
2023-04-06T17:00:48.843Z,11.72
2023-04-06T17:03:16.852Z,11.57
2023-04-06T17:05:45.298Z,11.31
2023-04-06T17:08:13.044Z,11.11
2023-04-06T17:10:51.685Z,10.86
2023-04-06T17:13:28.024Z,10.70
2023-04-06T17:15:55.749Z,10.46
2023-04-06T17:18:23.454Z,10.19
2023-04-06T17:20:51.169Z,10.02
2023-04-06T17:23:21.048Z,9.80
2023-04-06T17:25:49.893Z,9.56
2023-04-06T17:28:19.936Z,9.21
2023-04-06T17:30:49.143Z,9.05
2023-04-06T17:33:17.117Z,8.91
2023-04-06T17:35:46.267Z,8.84
2023-04-06T17:38:14.014Z,8.65
2023-04-06T17:40:41.781Z,8.34
2023-04-06T17:43:09.469Z,8.05
2023-04-06T17:45:37.169Z,7.98
2023-04-06T17:48:06.663Z,7.85
2023-04-06T17:50:34.395Z,7.73
2023-04-06T17:53:02.106Z,7.71
2023-04-06T17:55:29.814Z,7.54
2023-04-06T17:57:57.595Z,7.44
2023-04-06T18:00:25.665Z,7.29
2023-04-06T18:02:57.300Z,7.16
2023-04-06T18:05:27.473Z,7.00
2023-04-06T18:07:55.594Z,6.93
2023-04-06T18:10:26.304Z,6.94
2023-04-06T18:12:54.140Z,7.01
2023-04-06T18:15:22.025Z,6.93
2023-04-06T18:18:13.294Z,6.82
2023-04-06T18:20:42.533Z,6.98
2023-04-06T18:23:10.286Z,6.86
2023-04-06T18:25:41.555Z,6.73
2023-04-06T18:28:10.579Z,6.73
2023-04-06T18:30:38.282Z,6.80
2023-04-06T18:33:07.587Z,6.64
2023-04-06T18:35:35.426Z,6.59
2023-04-06T18:38:04.528Z,6.70
2023-04-06T18:40:33.616Z,6.68
2023-04-06T18:43:01.856Z,6.70
2023-04-06T18:45:29.579Z,6.75
2023-04-06T18:47:57.785Z,6.65
2023-04-06T18:50:25.697Z,6.63
2023-04-06T18:52:53.692Z,6.68
2023-04-06T18:55:22.968Z,6.64
2023-04-06T18:57:50.937Z,6.63
2023-04-06T19:00:19.157Z,6.65
2023-04-06T19:02:47.385Z,6.70
2023-04-06T19:05:15.653Z,6.73
2023-04-06T19:07:43.543Z,6.77
2023-04-06T19:10:12.537Z,6.83
2023-04-06T19:12:41.967Z,6.88
2023-04-06T19:15:10.979Z,6.87
2023-04-06T19:17:39.269Z,6.86
2023-04-06T19:20:08.354Z,6.98
2023-04-06T19:22:37.050Z,6.93
2023-04-06T19:25:05.380Z,6.90
2023-04-06T19:27:33.197Z,6.99
2023-04-06T19:30:02.274Z,6.84
2023-04-06T19:32:30.224Z,6.83
2023-04-06T19:34:59.595Z,6.83
2023-04-06T19:37:27.625Z,6.81
2023-04-06T19:39:55.487Z,6.81
2023-04-06T19:42:25.182Z,6.71
2023-04-06T19:44:57.102Z,6.76
2023-04-06T19:47:27.628Z,6.72
2023-04-06T19:49:55.609Z,6.68
2023-04-06T19:52:23.580Z,6.65
2023-04-06T19:54:51.287Z,6.79
2023-04-06T19:57:19.139Z,6.81
2023-04-06T19:59:47.473Z,6.75
2023-04-06T20:02:16.087Z,6.70
2023-04-06T20:04:50.276Z,6.63
2023-04-06T20:07:58.990Z,6.61
2023-04-06T20:10:39.124Z,6.58
2023-04-06T20:13:07.159Z,6.53
2023-04-06T20:15:34.899Z,6.49
2023-04-06T20:18:02.828Z,6.48
2023-04-06T20:20:32.548Z,6.52
2023-04-06T20:23:00.345Z,6.49
2023-04-06T20:25:28.117Z,6.52
2023-04-06T20:27:57.270Z,6.53
2023-04-06T20:30:25.529Z,6.48
2023-04-06T20:32:53.896Z,6.49
2023-04-06T20:35:22.059Z,6.47
2023-04-06T20:37:51.416Z,6.41
2023-04-06T20:40:20.112Z,6.36
2023-04-06T20:42:47.921Z,6.33
2023-04-06T20:45:15.662Z,6.34
2023-04-06T20:47:43.573Z,6.35
2023-04-06T20:50:11.892Z,6.47
2023-04-06T20:52:39.621Z,6.47
2023-04-06T20:55:09.355Z,6.43
2023-04-06T20:57:37.127Z,6.33
2023-04-06T21:00:06.060Z,6.32
2023-04-06T21:02:33.962Z,6.25
2023-04-06T21:05:01.910Z,6.23
2023-04-06T21:07:29.994Z,6.23
2023-04-06T21:09:57.733Z,6.23
2023-04-06T21:12:27.086Z,6.19
2023-04-06T21:14:54.820Z,6.13
2023-04-06T21:17:22.643Z,5.96
2023-04-06T21:19:50.785Z,5.88
2023-04-06T21:22:18.797Z,5.95
2023-04-06T21:24:46.751Z,5.85
2023-04-06T21:27:14.519Z,5.85
2023-04-06T21:29:43.910Z,5.80
2023-04-06T21:32:11.689Z,5.85
2023-04-06T21:34:39.533Z,5.93
2023-04-06T21:37:07.395Z,5.78
2023-04-06T21:39:37.748Z,5.76
2023-04-06T21:42:05.801Z,5.89
2023-04-06T21:44:34.904Z,5.90
2023-04-06T21:47:04.187Z,5.96
2023-04-06T21:49:32.098Z,6.02
2023-04-06T21:51:59.929Z,6.05
2023-04-06T21:54:33.648Z,6.07
2023-04-06T21:57:02.883Z,6.10
2023-04-06T21:59:30.641Z,6.14
2023-04-06T22:01:58.452Z,6.18
2023-04-06T22:04:27.753Z,6.22
2023-04-06T22:06:55.642Z,6.24
2023-04-06T22:09:23.380Z,6.29
2023-04-06T22:11:51.169Z,6.33
2023-04-06T22:14:19.874Z,6.34
2023-04-06T22:16:47.943Z,6.35
2023-04-06T22:19:15.864Z,6.34
2023-04-06T22:21:45.234Z,6.31
2023-04-06T22:24:13.082Z,6.29
2023-04-06T22:26:40.927Z,6.27
2023-04-06T22:29:08.722Z,6.27
2023-04-06T22:31:36.469Z,6.29
2023-04-06T22:34:04.249Z,6.32
2023-04-06T22:36:31.995Z,6.28
2023-04-06T22:39:01.070Z,6.31
2023-04-06T22:41:29.920Z,6.33
2023-04-06T22:43:57.990Z,6.35
2023-04-06T22:46:25.815Z,6.34
2023-04-06T22:48:53.648Z,6.35
2023-04-06T22:51:21.602Z,6.37
2023-04-06T22:53:49.311Z,6.41
2023-04-06T22:56:18.456Z,6.33
2023-04-06T22:58:46.239Z,6.42
2023-04-06T23:01:14.269Z,6.30
2023-04-06T23:03:42.118Z,6.32
2023-04-06T23:06:09.970Z,6.24
2023-04-06T23:08:37.675Z,6.25
2023-04-06T23:11:05.433Z,6.21
2023-04-06T23:13:34.501Z,6.20
2023-04-06T23:16:02.178Z,6.17
2023-04-06T23:18:29.921Z,6.19
2023-04-06T23:20:57.646Z,6.18
2023-04-06T23:23:25.352Z,6.12
2023-04-06T23:25:53.309Z,6.11
2023-04-06T23:28:21.168Z,6.05
2023-04-06T23:30:50.454Z,6.04
2023-04-06T23:33:18.156Z,6.04
2023-04-06T23:35:45.945Z,5.99
2023-04-06T23:38:13.702Z,5.95
2023-04-06T23:40:41.417Z,5.96
2023-04-06T23:43:09.133Z,5.97
2023-04-06T23:45:41.529Z,5.92
2023-04-06T23:48:10.907Z,5.89
2023-04-06T23:50:39.384Z,5.89
2023-04-06T23:53:07.212Z,5.95
2023-04-06T23:55:35.156Z,5.99
2023-04-06T23:58:04.043Z,6.13
